Terminal Aerodrome Forecast
Issued by NWS Greer, SC

Home | Current Version | Previous Version | Text Only | Print | Product List | Glossary On
Versions: 1 2 3 4 5 6 7 8 9 10 11 12 13 14 15 16 17 18 19 20 21 22 23 24 25 26 27 28 29 30 31 32 33 34 35 36
000
FTUS42 KGSP 241742 CCA
TAFAVL
TAF COR
KAVL 241742Z 2418/2518 21013G23KT P6SM SCT040
     FM250000 32009KT P6SM SCT045
     FM250700 33008KT P6SM FEW050 BKN150
     FM251000 33007KT P6SM SCT035 BKN120
     FM251200 33008KT P6SM SCT030 OVC100=

USA.gov is the U.S. government's official web portal to all federal, state and local government web resources and services.